Flight Track Log - Related Links

Times and Time Zones

All times are in EDT time to prevent confusion due to time zone crossing. See the AAY877 flight status page for this flight to view local times or setup timezone preferences in your user account.

Time Position Orientation Groundspeed Altitude Reporting Facility
EDT Latitude Longitude Course Direction KTS MPH feet Rate Location/Type
Sun 07:22:32 PM 42.1692 -89.0322 77° East 200 230 4,100  Level Chicago Center
Sun 07:23:34 PM 42.0983 -89.0119 168° South 218 251 6,700 2,634 Climbing Chicago Center
Sun 07:24:35 PM 42.0347 -89.0306 192° South 232 267 9,500 2,098 Climbing Chicago Center
Sun 07:25:37 PM 41.9661 -89.0469 190° South 253 291 11,000 1,984 Climbing Chicago Center
Sun 07:26:39 PM 41.8939 -88.9878 149° Southeast 302 348 13,600 1,935 Climbing Chicago Center
Sun 07:27:00 PM 41.5477 -88.7463 166° South  Level Estimated
Sun 07:27:41 PM 41.8194 -88.9183 145° Southeast 320 368 15,000  Level Chicago Center
Sun 07:28:00 PM 41.5003 -88.7317 77° East  Level FlightAware Approximate
Sun 07:28:43 PM 41.7356 -88.8292 142° Southeast 334 384 15,900  Level Chicago Center
Sun 07:29:45 PM 41.6547 -88.7472 143° Southeast 347 399 18,300 1,610 Climbing Chicago Center
Sun 07:30:46 PM 41.5708 -88.6708 146° Southeast 362 417 19,200 1,317 Climbing Chicago Center
Sun 07:31:48 PM 41.4803 -88.5881 146° Southeast 391 450 21,000 1,548 Climbing Chicago Center
Sun 07:32:50 PM 41.3897 -88.5008 144° Southeast 399 459 22,400 1,065 Climbing Chicago Center
Sun 07:33:52 PM 41.2919 -88.4094 145° Southeast 429 494 23,200 919 Climbing Chicago Center
Sun 07:34:54 PM 41.1908 -88.3117 144° Southeast 451 519 24,300 1,548 Climbing Chicago Center
Sun 07:35:56 PM 41.0664 -88.1914 144° Southeast 463 533 26,400 2,000 Climbing Chicago Center
Sun 07:36:57 PM 40.9644 -88.0947 144° Southeast 461 531 28,400 1,268 Climbing Chicago Center
Sun 07:37:59 PM 40.8606 -88.0053 147° Southeast 452 520 29,000 290 Climbing Chicago Center
Sun 07:39:01 PM 40.7567 -87.9128 146° Southeast 452 520 29,000  Level Chicago Center
Sun 07:40:03 PM 40.6522 -87.8122 144° Southeast 459 528 29,000  Level Chicago Center
Sun 07:41:05 PM 40.5258 -87.6922 144° Southeast 467 537 29,000  Level Chicago Center
Sun 07:42:06 PM 40.4169 -87.5947 146° Southeast 469 540 29,000  Level Chicago Center
Sun 07:43:08 PM 40.3092 -87.4986 146° Southeast 472 543 29,000  Level Chicago Center
Sun 07:44:10 PM 40.1975 -87.4017 146° Southeast 453 521 29,000  Level Chicago Center
Sun 07:45:12 PM 40.0939 -87.3039 144° Southeast 456 525 29,000  Level Chicago Center
Sun 07:46:14 PM 39.9906 -87.2094 145° Southeast 456 525 29,000  Level Chicago Center
Sun 07:47:16 PM 39.8853 -87.1200 147° Southeast 453 521 29,000 439 Level Chicago Center
Sun 07:48:17 PM 39.7808 -87.0261 145° Southeast 455 524 29,900 891 Climbing Chicago Center
Sun 07:49:24 PM 39.6539 -86.9111 145° Southeast 458 527 30,900 516 Climbing Indianapolis Center
Sun 07:50:25 PM 39.5497 -86.8200 146° Southeast 459 528 31,000 49 Climbing Indianapolis Center
Sun 07:51:27 PM 39.4433 -86.7278 146° Southeast 459 528 31,000  Level Indianapolis Center
Sun 07:52:28 PM 39.3350 -86.6361 147° Southeast 465 535 31,000  Level Indianapolis Center
Sun 07:53:30 PM 39.2081 -86.5217 145° Southeast 466 536 31,000  Level Indianapolis Center
Sun 07:54:31 PM 39.1014 -86.4281 146° Southeast 466 536 31,000  Level Indianapolis Center
Sun 07:55:33 PM 38.9933 -86.3364 147° Southeast 466 536 31,000  Level Indianapolis Center
Sun 07:56:34 PM 38.8867 -86.2439 146° Southeast 466 536 31,000  Level Indianapolis Center
Sun 07:57:36 PM 38.7856 -86.1569 146° Southeast 466 536 31,000  Level Indianapolis Center
Sun 07:58:37 PM 38.6553 -86.0447 146° Southeast 466 536 31,000 -634 Level Indianapolis Center
Sun 07:59:39 PM 38.5461 -85.9522 146° Southeast 468 539 29,700 -976 Descending Indianapolis Center
Sun 08:00:40 PM 38.4375 -85.8592 146° Southeast 468 539 29,000 -341 Descending Indianapolis Center
Sun 08:01:42 PM 38.3294 -85.7658 146° Southeast 467 537 29,000  Level Indianapolis Center
Sun 08:02:43 PM 38.2222 -85.6753 146° Southeast 465 535 29,000  Level Indianapolis Center
Sun 08:03:45 PM 38.1153 -85.5861 147° Southeast 460 529 29,000  Level Indianapolis Center
Sun 08:04:46 PM 37.9947 -85.5400 163° South 455 524 29,000  Level Indianapolis Center
Sun 08:05:48 PM 37.8753 -85.5111 169° South 441 507 29,000  Level Indianapolis Center
Sun 08:06:49 PM 37.7419 -85.4833 171° South 440 506 29,000  Level Indianapolis Center
Sun 08:07:51 PM 37.6206 -85.4514 168° South 440 506 29,000  Level Indianapolis Center
Sun 08:08:52 PM 37.5008 -85.4150 166° South 441 507 29,000  Level Indianapolis Center
Sun 08:09:54 PM 37.3814 -85.3808 167° South 441 507 29,000  Level Indianapolis Center
Sun 08:10:55 PM 37.2603 -85.3486 168° South 442 509 29,000  Level Indianapolis Center
Sun 08:11:57 PM 37.1364 -85.3194 169° South 445 512 29,000  Level Indianapolis Center
Sun 08:12:58 PM 37.0156 -85.2861 168° South 446 513 29,000  Level Indianapolis Center
Sun 08:14:00 PM 36.8928 -85.2536 168° South 446 513 29,000  Level Indianapolis Center
Sun 08:15:02 PM 36.7472 -85.2161 168° South 446 513 29,000  Level Indianapolis Center
Sun 08:16:03 PM 36.6239 -85.1828 168° South 447 514 29,000  Level Indianapolis Center
Sun 08:17:05 PM 36.5019 -85.1528 169° South 447 514 29,000  Level Indianapolis Center
Sun 08:18:06 PM 36.3775 -85.1217 169° South 452 520 29,000  Level Indianapolis Center
Sun 08:19:08 PM 36.2528 -85.0894 168° South 455 524 29,000  Level Indianapolis Center
Sun 08:20:10 PM 36.1300 -85.0564 168° South 455 524 29,000  Level Indianapolis Center
Sun 08:21:11 PM 36.0050 -85.0233 168° South 455 524 29,000  Level Indianapolis Center
Sun 08:22:20 PM 35.8419 -84.9839 169° South 447 514 29,000  Level Atlanta Center
Sun 08:23:20 PM 35.7150 -84.9544 169° South 469 540 29,000  Level Atlanta Center
Sun 08:24:20 PM 35.5900 -84.9225 168° South 464 534 29,000  Level Atlanta Center
Sun 08:25:20 PM 35.4669 -84.8906 168° South 464 534 29,000  Level Atlanta Center
Sun 08:26:20 PM 35.3422 -84.8586 168° South 459 528 29,000  Level Atlanta Center
Sun 08:27:20 PM 35.2192 -84.8269 168° South 459 528 29,000  Level Atlanta Center
Sun 08:28:20 PM 35.0922 -84.7953 168° South 459 528 29,000  Level Atlanta Center
Sun 08:29:20 PM 34.9672 -84.7661 169° South 459 528 29,000  Level Atlanta Center
Sun 08:30:20 PM 34.8419 -84.7347 168° South 464 534 29,000  Level Atlanta Center
Sun 08:31:20 PM 34.7192 -84.7033 168° South 464 534 29,000  Level Atlanta Center
Sun 08:32:20 PM 34.6086 -84.6722 167° South 464 534 29,000  Level Atlanta Center
Sun 08:33:20 PM 34.4858 -84.6436 169° South 456 525 29,000  Level Atlanta Center
Sun 08:34:20 PM 34.3628 -84.6125 168° South 456 525 29,000  Level Atlanta Center
Sun 08:35:20 PM 34.2356 -84.5814 169° South 456 525 29,000  Level Atlanta Center
Sun 08:36:20 PM 34.1106 -84.5531 169° South 456 525 29,000  Level Atlanta Center
Sun 08:37:20 PM 33.9728 -84.5197 169° South 461 531 29,000  Level Atlanta Center
Sun 08:38:20 PM 33.8436 -84.4889 169° South 473 544 29,000  Level Atlanta Center
Sun 08:39:20 PM 33.7225 -84.4583 168° South 465 535 29,000  Level Atlanta Center
Sun 08:40:20 PM 33.6078 -84.4328 169° South 471 542 29,000  Level Atlanta Center
Sun 08:41:20 PM 33.4806 -84.4322 180° South 464 534 29,000  Level Atlanta Center
Sun 08:42:20 PM 33.3553 -84.4342 181° South 457 526 29,000  Level Atlanta Center
Sun 08:43:20 PM 33.2300 -84.4336 180° South 457 526 29,000  Level Atlanta Center
Sun 08:44:20 PM 33.1028 -84.4256 177° South 457 526 29,000  Level Atlanta Center
Sun 08:45:20 PM 32.9628 -84.4200 178° South 457 526 29,000  Level Atlanta Center
Sun 08:46:20 PM 32.8336 -84.4194 180° South 457 526 29,000  Level Atlanta Center
Sun 08:47:20 PM 32.7228 -84.4167 179° South 457 526 29,000  Level Atlanta Center
Sun 08:48:20 PM 32.5933 -84.4186 181° South 457 526 29,000  Level Atlanta Center
Sun 08:49:20 PM 32.4683 -84.4131 178° South 457 526 29,000  Level Atlanta Center
Sun 08:50:20 PM 32.3431 -84.4075 178° South 457 526 29,000  Level Atlanta Center
Sun 08:51:20 PM 32.2136 -84.4072 180° South 463 533 29,000  Level Atlanta Center
Sun 08:52:20 PM 32.0864 -84.4042 179° South 463 533 29,000  Level Atlanta Center
Sun 08:53:27 PM 31.9319 -84.4031 180° South 462 532 29,000  Level Jacksonville Center
Sun 08:54:27 PM 31.8047 -84.4008 179° South 457 526 29,000  Level Jacksonville Center
Sun 08:55:27 PM 31.6878 -84.3967 178° South 457 526 29,000  Level Jacksonville Center
Sun 08:56:27 PM 31.5606 -84.3872 176° South 457 526 29,000  Level Jacksonville Center
Sun 08:57:27 PM 31.4358 -84.3486 165° South 462 532 29,000  Level Jacksonville Center
Sun 08:58:27 PM 31.3153 -84.2958 159° South 467 537 29,000  Level Jacksonville Center
Sun 08:59:27 PM 31.1906 -84.2428 160° South 479 551 29,000  Level Jacksonville Center
Sun 09:00:27 PM 31.0658 -84.1950 162° South 479 551 29,000  Level Jacksonville Center
Sun 09:01:27 PM 30.9408 -84.1522 164° South 479 551 29,000  Level Jacksonville Center
Sun 09:02:27 PM 30.8161 -84.1069 163° South 474 545 29,000  Level Jacksonville Center
Sun 09:03:27 PM 30.6914 -84.0569 161° South 474 545 29,000  Level Jacksonville Center
Sun 09:04:27 PM 30.5686 -84.0072 161° South 474 545 29,000  Level Jacksonville Center
Sun 09:05:27 PM 30.4333 -83.9575 162° South 474 545 29,000  Level Jacksonville Center
Sun 09:06:27 PM 30.3083 -83.9128 163° South 474 545 29,000  Level Jacksonville Center
Sun 09:07:27 PM 30.1814 -83.8681 163° South 474 545 29,000  Level Jacksonville Center
Sun 09:08:27 PM 30.0669 -83.8214 161° South 484 557 29,000  Level Jacksonville Center
Sun 09:09:27 PM 29.9442 -83.7747 162° South 479 551 29,000  Level Jacksonville Center
Sun 09:10:27 PM 29.8169 -83.7306 163° South 479 551 29,000  Level Jacksonville Center
Sun 09:11:27 PM 29.6919 -83.6864 163° South 479 551 29,000 -300 Level Jacksonville Center
Sun 09:12:27 PM 29.5650 -83.6375 161° South 479 551 28,400 -800 Descending Jacksonville Center
Sun 09:13:27 PM 29.4419 -83.5914 162° South 474 545 27,400 -750 Descending Jacksonville Center
Sun 09:14:27 PM 29.3192 -83.5475 163° South 468 539 26,900 -750 Descending Jacksonville Center
Sun 09:15:27 PM 29.2003 -83.4969 160° South 461 531 25,900 -1,500 Descending Jacksonville Center
Sun 09:16:27 PM 29.0900 -83.4297 152° Southeast 455 524 23,900 -2,150 Descending Jacksonville Center
Sun 09:17:27 PM 28.9839 -83.3578 149° Southeast 444 511 21,600 -2,350 Descending Jacksonville Center
Sun 09:18:27 PM 28.8797 -83.2886 150° Southeast 444 511 19,200 -2,100 Descending Jacksonville Center
Sun 09:19:27 PM 28.7819 -83.2314 153° Southeast 426 490 17,400 -1,748 Descending Jacksonville Center
Sun 09:20:58 PM 28.6333 -83.1333 150° Southeast 357 411 14,800 -1,629 Descending Tampa TRACON
Sun 09:21:58 PM 28.5500 -83.0833 152° Southeast 345 397 13,300 -1,556 Descending Tampa TRACON
Sun 09:22:46 PM 28.4833 -83.0500 156° South 331 381 12,000 -1,667 Descending Tampa TRACON
Sun 09:23:46 PM 28.4000 -83.0000 152° Southeast 315 362 10,300 -1,600 Descending Tampa TRACON
Sun 09:24:46 PM 28.3333 -82.9500 147° Southeast 268 308 8,800 -1,500 Descending Tampa TRACON
Sun 09:25:46 PM 28.2833 -82.9000 139° Southeast 252 290 7,300 -1,400 Descending Tampa TRACON
Sun 09:26:46 PM 28.2333 -82.8667 150° Southeast 214 246 6,000 -1,150 Descending Tampa TRACON
Sun 09:27:46 PM 28.1833 -82.8333 150° Southeast 189 217 5,000 -1,000 Descending Tampa TRACON
Sun 09:28:58 PM 28.1167 -82.8000 156° South 201 231 3,800 -992 Descending Tampa TRACON
Sun 09:29:47 PM 28.0833 -82.7667 139° Southeast 203 234 3,000 -1,049 Descending Tampa TRACON
Sun 09:30:41 PM 28.0500 -82.7333 139° Southeast 186 214 2,000 -652 Descending Tampa TRACON
Sun 09:32:05 PM 28.0000 -82.7167 164° South 145 167 1,500 -476 Descending Tampa TRACON
Sun 09:32:47 PM 27.9667 -82.7000 156° South 135 155 1,000 -706 Descending Tampa TRACON
Sun 09:33:47 PM 27.9333 -82.7000 180° South 129 148 300 -700 Descending Tampa TRACON

Login

Don't have an account? Register now (free) for customized features, flight alerts, and more!